createdAt,value
2018-07-30T00:00:41.862Z,23.4
2018-07-30T00:01:41.903Z,23.4
2018-07-30T00:02:41.850Z,23.4
2018-07-30T00:03:41.747Z,23.4
2018-07-30T00:04:41.940Z,23.4
2018-07-30T00:05:41.809Z,23.4
2018-07-30T00:06:41.966Z,23.4
2018-07-30T00:07:41.842Z,23.4
2018-07-30T00:08:41.840Z,23.39
2018-07-30T00:09:41.949Z,23.4
2018-07-30T00:10:41.932Z,23.4
2018-07-30T00:11:41.883Z,23.4
2018-07-30T00:12:41.734Z,23.4
2018-07-30T00:13:41.825Z,23.39
2018-07-30T00:14:41.950Z,23.39
2018-07-30T00:15:41.906Z,23.4
2018-07-30T00:16:41.841Z,23.4
2018-07-30T00:17:41.769Z,23.39
2018-07-30T00:18:41.920Z,23.39
2018-07-30T00:19:42.307Z,23.39
2018-07-30T00:20:41.921Z,23.39
2018-07-30T00:21:41.941Z,23.39
2018-07-30T00:22:41.801Z,23.39
2018-07-30T00:23:41.940Z,23.39
2018-07-30T00:24:41.791Z,23.39
2018-07-30T00:25:41.752Z,23.39
2018-07-30T00:26:41.777Z,23.39
2018-07-30T00:27:41.894Z,23.39
2018-07-30T00:28:41.974Z,23.39
2018-07-30T00:29:41.832Z,23.39
2018-07-30T00:30:41.748Z,23.39
2018-07-30T00:31:41.870Z,23.39
2018-07-30T00:32:41.812Z,23.38
2018-07-30T00:33:41.848Z,23.39
2018-07-30T00:34:41.723Z,23.38
2018-07-30T00:35:41.804Z,23.38
2018-07-30T00:36:42.146Z,23.38
2018-07-30T00:37:41.901Z,23.38
2018-07-30T00:38:41.714Z,23.38
2018-07-30T00:39:42.111Z,23.39
2018-07-30T00:40:42.103Z,23.38
2018-07-30T00:41:41.760Z,23.38
2018-07-30T00:42:42.178Z,23.38
2018-07-30T00:43:41.776Z,23.38
2018-07-30T00:44:41.848Z,23.38
2018-07-30T00:45:41.805Z,23.38
2018-07-30T00:46:41.897Z,23.38
2018-07-30T00:47:42.081Z,23.38
2018-07-30T00:48:41.900Z,23.38
2018-07-30T00:49:41.815Z,23.38
2018-07-30T00:50:41.842Z,23.38
2018-07-30T00:51:41.905Z,23.38
2018-07-30T00:52:41.834Z,23.38
2018-07-30T00:53:41.782Z,23.38
2018-07-30T00:54:41.945Z,23.38
2018-07-30T00:55:41.832Z,23.38
2018-07-30T00:56:42.041Z,23.38
2018-07-30T00:57:41.990Z,23.37
2018-07-30T00:58:41.879Z,23.38
2018-07-30T00:59:41.853Z,23.38
2018-07-30T01:00:41.760Z,23.38
2018-07-30T01:01:41.835Z,23.38
2018-07-30T01:02:41.897Z,23.37
2018-07-30T01:03:41.798Z,23.38
2018-07-30T01:04:41.872Z,23.38
2018-07-30T01:05:41.741Z,23.37
2018-07-30T01:06:41.915Z,23.38
2018-07-30T01:07:42.675Z,23.38
2018-07-30T01:08:42.036Z,23.37
2018-07-30T01:09:41.918Z,23.38
2018-07-30T01:10:41.773Z,23.38
2018-07-30T01:11:41.985Z,23.37
2018-07-30T01:12:41.871Z,23.38
2018-07-30T01:13:41.714Z,23.38
2018-07-30T01:14:41.708Z,23.37
2018-07-30T01:15:41.880Z,23.37
2018-07-30T01:16:41.732Z,23.37
2018-07-30T01:17:41.853Z,23.37
2018-07-30T01:18:41.881Z,23.37
2018-07-30T01:19:41.989Z,23.37
2018-07-30T01:20:41.929Z,23.37
2018-07-30T01:21:42.496Z,23.37
2018-07-30T01:22:41.852Z,23.37
2018-07-30T01:23:41.708Z,23.36
2018-07-30T01:24:41.832Z,23.37
2018-07-30T01:25:41.736Z,23.37
2018-07-30T01:26:41.965Z,23.36
2018-07-30T01:27:41.918Z,23.36
2018-07-30T01:28:41.916Z,23.36
2018-07-30T01:29:41.807Z,23.36
2018-07-30T01:30:41.830Z,23.36
2018-07-30T01:31:42.167Z,23.36
2018-07-30T01:32:41.830Z,23.36
2018-07-30T01:33:41.982Z,23.36
2018-07-30T01:34:41.841Z,23.37
2018-07-30T01:35:41.953Z,23.36
2018-07-30T01:36:41.840Z,23.36
2018-07-30T01:37:42.033Z,23.36
2018-07-30T01:38:41.887Z,23.36
2018-07-30T01:39:41.865Z,23.36
2018-07-30T01:40:41.942Z,23.36
2018-07-30T01:41:41.730Z,23.36
2018-07-30T01:42:41.841Z,23.36
2018-07-30T01:43:41.843Z,23.36
2018-07-30T01:44:41.738Z,23.36
2018-07-30T01:45:41.809Z,23.36
2018-07-30T01:46:41.836Z,23.36
2018-07-30T01:47:41.869Z,23.36
2018-07-30T01:48:41.792Z,23.36
2018-07-30T01:49:41.880Z,23.35
2018-07-30T01:50:41.999Z,23.35
2018-07-30T01:51:41.864Z,23.35
2018-07-30T01:52:42.108Z,23.36
2018-07-30T01:53:41.924Z,23.36
2018-07-30T01:54:41.891Z,23.35
2018-07-30T01:55:41.923Z,23.36
2018-07-30T01:56:41.882Z,23.35
2018-07-30T01:57:41.772Z,23.35
2018-07-30T01:58:42.028Z,23.35
2018-07-30T01:59:41.826Z,23.35
2018-07-30T02:00:42.006Z,23.35
2018-07-30T02:01:41.871Z,23.35
2018-07-30T02:02:41.808Z,23.35
2018-07-30T02:03:41.898Z,23.35
2018-07-30T02:04:41.721Z,23.35
2018-07-30T02:05:41.816Z,23.35
2018-07-30T02:06:41.828Z,23.35
2018-07-30T02:07:41.897Z,23.35
2018-07-30T02:08:41.872Z,23.35
2018-07-30T02:09:41.761Z,23.35
2018-07-30T02:10:41.785Z,23.35
2018-07-30T02:11:41.687Z,23.35
2018-07-30T02:12:41.784Z,23.35
2018-07-30T02:13:42.024Z,23.35
2018-07-30T02:14:41.893Z,23.34
2018-07-30T02:15:41.986Z,23.35
2018-07-30T02:16:41.875Z,23.35
2018-07-30T02:17:41.745Z,23.35
2018-07-30T02:18:41.815Z,23.35
2018-07-30T02:19:41.973Z,23.35
2018-07-30T02:20:41.755Z,23.35
2018-07-30T02:21:41.914Z,23.35
2018-07-30T02:22:41.812Z,23.34
2018-07-30T02:23:41.768Z,23.34
2018-07-30T02:24:41.683Z,23.35
2018-07-30T02:25:41.916Z,23.35
2018-07-30T02:26:41.742Z,23.34
2018-07-30T02:27:41.759Z,23.35
2018-07-30T02:28:41.965Z,23.35
2018-07-30T02:29:41.747Z,23.34
2018-07-30T02:30:41.671Z,23.34
2018-07-30T02:31:41.820Z,23.34
2018-07-30T02:32:41.688Z,23.34
2018-07-30T02:33:41.959Z,23.34
2018-07-30T02:34:41.994Z,23.34
2018-07-30T02:35:41.736Z,23.34
2018-07-30T02:36:41.826Z,23.34
2018-07-30T02:37:41.941Z,23.34
2018-07-30T02:38:41.920Z,23.34
2018-07-30T02:39:41.670Z,23.34
2018-07-30T02:40:41.964Z,23.34
2018-07-30T02:41:41.752Z,23.34
2018-07-30T02:42:41.985Z,23.34
2018-07-30T02:43:41.829Z,23.34
2018-07-30T02:44:41.675Z,23.34
2018-07-30T02:45:41.709Z,23.34
2018-07-30T02:46:41.691Z,23.34
2018-07-30T02:47:41.763Z,23.34
2018-07-30T02:48:41.882Z,23.34
2018-07-30T02:49:41.850Z,23.34
2018-07-30T02:50:41.814Z,23.33
2018-07-30T02:51:41.978Z,23.33
2018-07-30T02:52:41.869Z,23.33
2018-07-30T02:53:41.928Z,23.34
2018-07-30T02:54:41.789Z,23.34
2018-07-30T02:55:41.938Z,23.33
2018-07-30T02:56:41.785Z,23.34
2018-07-30T02:57:42.810Z,23.34
2018-07-30T02:58:41.881Z,23.33
2018-07-30T02:59:41.702Z,23.33
2018-07-30T03:00:41.822Z,23.34
2018-07-30T03:01:41.928Z,23.34
2018-07-30T03:02:41.820Z,23.33
2018-07-30T03:03:41.747Z,23.33
2018-07-30T03:04:41.744Z,23.33
2018-07-30T03:05:41.962Z,23.33
2018-07-30T03:06:41.839Z,23.33
2018-07-30T03:07:41.883Z,23.33
2018-07-30T03:08:41.850Z,23.33
2018-07-30T03:09:41.889Z,23.33
2018-07-30T03:10:41.802Z,23.33
2018-07-30T03:11:41.811Z,23.33
2018-07-30T03:12:41.800Z,23.33
2018-07-30T03:13:41.775Z,23.33
2018-07-30T03:14:41.847Z,23.33
2018-07-30T03:15:41.720Z,23.33
2018-07-30T03:16:41.882Z,23.33
2018-07-30T03:17:41.874Z,23.33
2018-07-30T03:18:41.738Z,23.33
2018-07-30T03:19:41.826Z,23.33
2018-07-30T03:20:41.932Z,23.33
2018-07-30T03:21:41.767Z,23.33
2018-07-30T03:22:41.712Z,23.33
2018-07-30T03:23:41.765Z,23.33
2018-07-30T03:24:41.943Z,23.33
2018-07-30T03:25:41.966Z,23.33
2018-07-30T03:26:41.694Z,23.33
2018-07-30T03:27:41.775Z,23.33
2018-07-30T03:28:41.956Z,23.33
2018-07-30T03:29:41.851Z,23.33
2018-07-30T03:30:41.877Z,23.33
2018-07-30T03:31:41.965Z,23.33
2018-07-30T03:32:41.888Z,23.33
2018-07-30T03:33:41.842Z,23.33
2018-07-30T03:34:41.794Z,23.33
2018-07-30T03:35:41.630Z,23.33
2018-07-30T03:36:41.731Z,23.33
2018-07-30T03:37:41.952Z,23.33
2018-07-30T03:38:41.807Z,23.33
2018-07-30T03:39:41.885Z,23.33
2018-07-30T03:40:41.859Z,23.33
2018-07-30T03:41:41.774Z,23.33
2018-07-30T03:42:41.956Z,23.33
2018-07-30T03:43:41.860Z,23.33
2018-07-30T03:44:41.744Z,23.33
2018-07-30T03:45:41.863Z,23.33
2018-07-30T03:46:41.863Z,23.33
2018-07-30T03:47:41.713Z,23.33
2018-07-30T03:48:41.825Z,23.33
2018-07-30T03:49:41.677Z,23.33
2018-07-30T03:50:41.801Z,23.32
2018-07-30T03:51:41.864Z,23.33
2018-07-30T03:52:41.849Z,23.33
2018-07-30T03:53:41.760Z,23.33
2018-07-30T03:54:42.216Z,23.33
2018-07-30T03:55:41.726Z,23.33
2018-07-30T03:56:41.710Z,23.33
2018-07-30T03:57:41.976Z,23.33
2018-07-30T03:58:41.718Z,23.32
2018-07-30T03:59:41.740Z,23.33
2018-07-30T04:00:41.918Z,23.33
2018-07-30T04:01:41.926Z,23.33
2018-07-30T04:02:41.860Z,23.33
2018-07-30T04:03:41.827Z,23.32
2018-07-30T04:04:41.722Z,23.33
2018-07-30T04:05:41.988Z,23.32
2018-07-30T04:06:41.973Z,23.32
2018-07-30T04:07:41.711Z,23.32
2018-07-30T04:08:41.777Z,23.32
2018-07-30T04:09:41.801Z,23.32
2018-07-30T04:10:41.901Z,23.32
2018-07-30T04:11:42.084Z,23.32
2018-07-30T04:12:42.187Z,23.32
2018-07-30T04:13:41.702Z,23.32
2018-07-30T04:14:41.772Z,23.32
2018-07-30T04:15:41.926Z,23.32
2018-07-30T04:16:42.247Z,23.32
2018-07-30T04:17:42.110Z,23.32
2018-07-30T04:18:41.680Z,23.32
2018-07-30T04:19:41.668Z,23.32
2018-07-30T04:20:41.822Z,23.31
2018-07-30T04:21:41.738Z,23.32
2018-07-30T04:22:41.855Z,23.32
2018-07-30T04:23:41.907Z,23.32
2018-07-30T04:24:41.884Z,23.32
2018-07-30T04:25:41.863Z,23.31
2018-07-30T04:26:41.885Z,23.32
2018-07-30T04:27:41.829Z,23.31
2018-07-30T04:28:42.162Z,23.31
2018-07-30T04:29:41.943Z,23.32
2018-07-30T04:30:42.261Z,23.31
2018-07-30T04:31:41.679Z,23.31
2018-07-30T04:32:41.897Z,23.31
2018-07-30T04:33:41.834Z,23.31
2018-07-30T04:34:41.866Z,23.31
2018-07-30T04:35:41.781Z,23.31
2018-07-30T04:36:41.744Z,23.31
2018-07-30T04:37:41.897Z,23.31
2018-07-30T04:38:41.807Z,23.31
2018-07-30T04:39:41.929Z,23.31
2018-07-30T04:40:42.069Z,23.31
2018-07-30T04:41:41.941Z,23.31
2018-07-30T04:42:41.928Z,23.31
2018-07-30T04:43:41.849Z,23.31
2018-07-30T04:44:41.775Z,23.31
2018-07-30T04:45:41.806Z,23.31
2018-07-30T04:46:41.882Z,23.31
2018-07-30T04:47:42.042Z,23.3
2018-07-30T04:48:41.815Z,23.31
2018-07-30T04:49:41.955Z,23.31
2018-07-30T04:50:41.703Z,23.31
2018-07-30T04:51:41.820Z,23.31
2018-07-30T04:52:41.813Z,23.31
2018-07-30T04:53:42.026Z,23.3
2018-07-30T04:54:41.968Z,23.31
2018-07-30T04:55:42.351Z,23.31
2018-07-30T04:56:41.742Z,23.3
2018-07-30T04:57:41.706Z,23.31
2018-07-30T04:58:41.992Z,23.31
2018-07-30T04:59:42.096Z,23.31
2018-07-30T05:00:41.800Z,23.31
2018-07-30T05:01:41.959Z,23.31
2018-07-30T05:02:41.812Z,23.31
2018-07-30T05:03:41.932Z,23.31
2018-07-30T05:04:41.795Z,23.31
2018-07-30T05:05:41.816Z,23.31
2018-07-30T05:06:41.810Z,23.31
2018-07-30T05:07:41.819Z,23.31
2018-07-30T05:08:41.807Z,23.31
2018-07-30T05:09:41.681Z,23.31
2018-07-30T05:10:41.820Z,23.31
2018-07-30T05:11:41.663Z,23.31
2018-07-30T05:12:41.819Z,23.31
2018-07-30T05:13:41.737Z,23.31
2018-07-30T05:14:41.780Z,23.3
2018-07-30T05:15:41.864Z,23.31
2018-07-30T05:16:42.056Z,23.3
2018-07-30T05:17:41.845Z,23.3
2018-07-30T05:18:41.802Z,23.3
2018-07-30T05:19:41.842Z,23.31
2018-07-30T05:20:41.740Z,23.3
2018-07-30T05:21:41.724Z,23.3
2018-07-30T05:22:41.915Z,23.3
2018-07-30T05:23:41.757Z,23.3
2018-07-30T05:24:41.809Z,23.3
2018-07-30T05:25:41.966Z,23.3
2018-07-30T05:26:41.866Z,23.3
2018-07-30T05:27:41.747Z,23.3
2018-07-30T05:28:42.049Z,23.3
2018-07-30T05:29:41.766Z,23.3
2018-07-30T05:30:41.899Z,23.3
2018-07-30T05:31:42.408Z,23.3
2018-07-30T05:32:41.736Z,23.3
2018-07-30T05:33:41.703Z,23.3
2018-07-30T05:34:41.867Z,23.3
2018-07-30T05:35:41.928Z,23.3
2018-07-30T05:36:41.734Z,23.29
2018-07-30T05:37:41.880Z,23.3
2018-07-30T05:38:41.865Z,23.3
2018-07-30T05:39:41.765Z,23.3
2018-07-30T05:40:41.794Z,23.3
2018-07-30T05:41:41.682Z,23.29
2018-07-30T05:42:42.109Z,23.3
2018-07-30T05:43:41.881Z,23.3
2018-07-30T05:44:42.225Z,23.3
2018-07-30T05:45:41.935Z,23.3
2018-07-30T05:46:41.941Z,23.3
2018-07-30T05:47:41.609Z,23.3
2018-07-30T05:48:41.733Z,23.29
2018-07-30T05:49:41.849Z,23.3
2018-07-30T05:50:41.804Z,23.29
2018-07-30T05:51:41.650Z,23.29
2018-07-30T05:52:42.033Z,23.29
2018-07-30T05:53:41.961Z,23.29
2018-07-30T05:54:41.850Z,23.3
2018-07-30T05:55:41.690Z,23.29
2018-07-30T05:56:41.763Z,23.29
2018-07-30T05:57:41.844Z,23.29
2018-07-30T05:58:41.890Z,23.29
2018-07-30T05:59:42.138Z,23.29
2018-07-30T06:00:41.813Z,23.29
2018-07-30T06:01:41.879Z,23.29
2018-07-30T06:02:41.898Z,23.29
2018-07-30T06:03:41.826Z,23.29
2018-07-30T06:04:42.112Z,23.3
2018-07-30T06:05:41.702Z,23.29
2018-07-30T06:06:41.785Z,23.29
2018-07-30T06:07:41.751Z,23.29
2018-07-30T06:08:41.688Z,23.29
2018-07-30T06:09:42.728Z,23.29
2018-07-30T06:10:41.994Z,23.29
2018-07-30T06:11:41.875Z,23.29
2018-07-30T06:12:41.636Z,23.29
2018-07-30T06:13:41.765Z,23.29
2018-07-30T06:14:41.981Z,23.29
2018-07-30T06:15:41.858Z,23.28
2018-07-30T06:16:41.635Z,23.29
2018-07-30T06:17:41.818Z,23.28
2018-07-30T06:18:41.769Z,23.29
2018-07-30T06:19:41.853Z,23.29
2018-07-30T06:20:41.812Z,23.29
2018-07-30T06:21:41.745Z,23.29
2018-07-30T06:22:41.828Z,23.29
2018-07-30T06:23:41.615Z,23.29
2018-07-30T06:24:41.798Z,23.29
2018-07-30T06:25:41.724Z,23.29
2018-07-30T06:26:41.874Z,23.29
2018-07-30T06:27:41.581Z,23.29
2018-07-30T06:28:41.617Z,23.29
2018-07-30T06:29:41.824Z,23.29
2018-07-30T06:30:41.842Z,23.29
2018-07-30T06:31:41.645Z,23.29
2018-07-30T06:32:41.642Z,23.29
2018-07-30T06:33:41.614Z,23.29
2018-07-30T06:34:41.757Z,23.29
2018-07-30T06:35:41.636Z,23.29
2018-07-30T06:36:41.681Z,23.29
2018-07-30T06:37:41.805Z,23.29
2018-07-30T06:38:41.844Z,23.29
2018-07-30T06:39:41.885Z,23.29
2018-07-30T06:40:41.825Z,23.29
2018-07-30T06:41:41.756Z,23.29
2018-07-30T06:42:41.700Z,23.29
2018-07-30T06:43:41.791Z,23.29
2018-07-30T06:44:42.080Z,23.29
2018-07-30T06:45:41.618Z,23.29
2018-07-30T06:46:41.640Z,23.29
2018-07-30T06:47:41.952Z,23.28
2018-07-30T06:48:41.631Z,23.29
2018-07-30T06:49:41.886Z,23.29
2018-07-30T06:50:41.918Z,23.28
2018-07-30T06:51:41.927Z,23.29
2018-07-30T06:52:42.040Z,23.28
2018-07-30T06:53:41.690Z,23.29
2018-07-30T06:54:41.652Z,23.28
2018-07-30T06:55:42.083Z,23.29
2018-07-30T06:56:41.751Z,23.29
2018-07-30T06:57:41.861Z,23.29
2018-07-30T06:58:41.926Z,23.29
2018-07-30T06:59:41.906Z,23.29
2018-07-30T07:00:41.803Z,23.29
2018-07-30T07:01:41.794Z,23.29
2018-07-30T07:02:41.868Z,23.28
2018-07-30T07:03:41.911Z,23.28
2018-07-30T07:04:42.095Z,23.28
2018-07-30T07:05:41.780Z,23.28
2018-07-30T07:06:41.917Z,23.28
2018-07-30T07:07:41.746Z,23.28
2018-07-30T07:08:41.879Z,23.28
2018-07-30T07:09:41.614Z,23.29
2018-07-30T07:10:41.957Z,23.29
2018-07-30T07:11:41.863Z,23.28
2018-07-30T07:12:41.593Z,23.28
2018-07-30T07:13:41.931Z,23.29
2018-07-30T07:14:41.925Z,23.28
2018-07-30T07:15:41.876Z,23.28
2018-07-30T07:16:42.756Z,23.28
2018-07-30T07:17:42.059Z,23.28
2018-07-30T07:18:41.805Z,23.28
2018-07-30T07:19:41.891Z,23.28
2018-07-30T07:20:42.365Z,23.28
2018-07-30T07:21:42.395Z,23.28
2018-07-30T07:22:41.758Z,23.28
2018-07-30T07:23:41.659Z,23.28
2018-07-30T07:24:41.773Z,23.28
2018-07-30T07:25:41.827Z,23.28
2018-07-30T07:26:41.883Z,23.27
2018-07-30T07:27:41.828Z,23.28
2018-07-30T07:28:41.888Z,23.28
2018-07-30T07:29:41.847Z,23.28
2018-07-30T07:30:41.887Z,23.28
2018-07-30T07:31:41.737Z,23.27
2018-07-30T07:32:41.749Z,23.27
2018-07-30T07:33:41.900Z,23.28
2018-07-30T07:34:41.855Z,23.27
2018-07-30T07:35:41.868Z,23.28
2018-07-30T07:36:41.704Z,23.27
2018-07-30T07:37:41.882Z,23.28
2018-07-30T07:38:41.677Z,23.27
2018-07-30T07:39:41.847Z,23.27
2018-07-30T07:40:41.779Z,23.27
2018-07-30T07:41:41.627Z,23.27
2018-07-30T07:42:41.635Z,23.28
2018-07-30T07:43:42.042Z,23.28
2018-07-30T07:44:41.707Z,23.27
2018-07-30T07:45:41.702Z,23.28
2018-07-30T07:46:41.673Z,23.27
2018-07-30T07:47:41.635Z,23.27
2018-07-30T07:48:41.631Z,23.27
2018-07-30T07:49:41.902Z,23.27
2018-07-30T07:50:43.009Z,23.27
2018-07-30T07:51:42.202Z,23.27
2018-07-30T07:52:41.888Z,23.28
2018-07-30T07:53:41.730Z,23.27
2018-07-30T07:54:41.821Z,23.27
2018-07-30T07:55:41.729Z,23.28
2018-07-30T07:56:41.807Z,23.27
2018-07-30T07:57:42.028Z,23.28
2018-07-30T07:58:41.856Z,23.27
2018-07-30T07:59:41.945Z,23.28
2018-07-30T08:00:41.757Z,23.28
2018-07-30T08:01:41.862Z,23.27
2018-07-30T08:02:41.589Z,23.27
2018-07-30T08:03:41.741Z,23.27
2018-07-30T08:04:41.880Z,23.28
2018-07-30T08:05:41.844Z,23.27
2018-07-30T08:06:41.663Z,23.27
2018-07-30T08:07:41.906Z,23.27
2018-07-30T08:08:41.912Z,23.27
2018-07-30T08:09:42.133Z,23.27
2018-07-30T08:10:41.861Z,23.27
2018-07-30T08:11:41.803Z,23.27
2018-07-30T08:12:41.614Z,23.27
2018-07-30T08:13:41.864Z,23.27
2018-07-30T08:14:41.833Z,23.27
2018-07-30T08:15:41.604Z,23.27
2018-07-30T08:16:41.907Z,23.27
2018-07-30T08:17:41.867Z,23.27
2018-07-30T08:18:41.751Z,23.27
2018-07-30T08:19:41.966Z,23.27
2018-07-30T08:20:41.768Z,23.27
2018-07-30T08:21:41.798Z,23.27
2018-07-30T08:22:41.852Z,23.27
2018-07-30T08:23:41.793Z,23.27
2018-07-30T08:24:41.843Z,23.27
2018-07-30T08:25:41.741Z,23.27
2018-07-30T08:26:41.760Z,23.27
2018-07-30T08:27:41.800Z,23.27
2018-07-30T08:28:41.776Z,23.27
2018-07-30T08:29:41.709Z,23.27
2018-07-30T08:30:41.703Z,23.27
2018-07-30T08:31:41.847Z,23.27
2018-07-30T08:32:41.607Z,23.27
2018-07-30T08:33:42.195Z,23.27
2018-07-30T08:34:41.794Z,23.27
2018-07-30T08:35:41.793Z,23.27
2018-07-30T08:36:41.624Z,23.27
2018-07-30T08:37:41.773Z,23.27
2018-07-30T08:38:41.846Z,23.27
2018-07-30T08:39:41.692Z,23.27
2018-07-30T08:40:41.884Z,23.27
2018-07-30T08:41:41.633Z,23.27
2018-07-30T08:42:42.052Z,23.28
2018-07-30T08:43:42.063Z,23.27
2018-07-30T08:44:41.829Z,23.27
2018-07-30T08:45:41.606Z,23.28
2018-07-30T08:46:41.835Z,23.27
2018-07-30T08:47:41.687Z,23.27
2018-07-30T08:48:42.403Z,23.27
2018-07-30T08:49:41.714Z,23.27
2018-07-30T08:50:41.734Z,23.28
2018-07-30T08:51:41.844Z,23.27
2018-07-30T08:52:42.011Z,23.28
2018-07-30T08:53:42.057Z,23.28
2018-07-30T08:54:41.782Z,23.27
2018-07-30T08:55:41.624Z,23.27
2018-07-30T08:56:41.663Z,23.27
2018-07-30T08:57:41.808Z,23.28
2018-07-30T08:58:42.033Z,23.28
2018-07-30T08:59:41.694Z,23.27
2018-07-30T09:00:41.618Z,23.27
2018-07-30T09:01:41.804Z,23.27
2018-07-30T09:02:41.830Z,23.27
2018-07-30T09:03:41.560Z,23.27
2018-07-30T09:04:41.913Z,23.27
2018-07-30T09:05:42.071Z,23.27
2018-07-30T09:06:41.622Z,23.27
2018-07-30T09:07:41.666Z,23.27
2018-07-30T09:08:42.073Z,23.27
2018-07-30T09:09:41.879Z,23.27
2018-07-30T09:10:41.650Z,23.27
2018-07-30T09:11:41.911Z,23.27
2018-07-30T09:12:42.688Z,23.27
2018-07-30T09:13:41.882Z,23.27
2018-07-30T09:14:41.916Z,23.27
2018-07-30T09:15:41.802Z,23.27
2018-07-30T09:16:41.882Z,23.27
2018-07-30T09:17:41.800Z,23.27
2018-07-30T09:18:41.827Z,23.27
2018-07-30T09:19:41.899Z,23.27
2018-07-30T09:20:41.762Z,23.27
2018-07-30T09:21:41.737Z,23.27
2018-07-30T09:22:41.859Z,23.27
2018-07-30T09:23:42.146Z,23.27
2018-07-30T09:24:41.693Z,23.27
2018-07-30T09:25:41.838Z,23.27
2018-07-30T09:26:41.759Z,23.27
2018-07-30T09:27:41.772Z,23.27
2018-07-30T09:28:41.899Z,23.27
2018-07-30T09:29:41.776Z,23.27
2018-07-30T09:30:41.912Z,23.27
2018-07-30T09:31:41.913Z,23.27
2018-07-30T09:32:42.173Z,23.27
2018-07-30T09:33:41.998Z,23.27
2018-07-30T09:34:41.762Z,23.27
2018-07-30T09:35:41.549Z,23.27
2018-07-30T09:36:41.752Z,23.27
2018-07-30T09:37:41.784Z,23.27
2018-07-30T09:38:42.005Z,23.27
2018-07-30T09:39:42.955Z,23.27
2018-07-30T09:40:41.895Z,23.27
2018-07-30T09:41:41.791Z,23.27
2018-07-30T09:42:41.831Z,23.27
2018-07-30T09:43:41.631Z,23.27
2018-07-30T09:44:41.812Z,23.27
2018-07-30T09:45:41.953Z,23.27
2018-07-30T09:46:41.899Z,23.27
2018-07-30T09:47:41.803Z,23.27
2018-07-30T09:48:41.735Z,23.27
2018-07-30T09:49:41.841Z,23.27
2018-07-30T09:50:42.559Z,23.27
2018-07-30T09:51:41.900Z,23.27
2018-07-30T09:52:41.658Z,23.27
2018-07-30T09:53:41.734Z,23.27
2018-07-30T09:54:41.679Z,23.27
2018-07-30T09:55:41.863Z,23.27
2018-07-30T09:56:41.908Z,23.27
2018-07-30T09:57:41.818Z,23.27
2018-07-30T09:58:41.863Z,23.27
2018-07-30T09:59:41.762Z,23.27
2018-07-30T10:00:41.875Z,23.27
2018-07-30T10:01:41.803Z,23.27
2018-07-30T10:02:41.697Z,23.27
2018-07-30T10:03:41.769Z,23.27
2018-07-30T10:04:41.811Z,23.27
2018-07-30T10:05:41.802Z,23.27
2018-07-30T10:06:41.590Z,23.27
2018-07-30T10:07:41.820Z,23.27
2018-07-30T10:08:41.565Z,23.27
2018-07-30T10:09:41.634Z,23.27
2018-07-30T10:10:41.641Z,23.27
2018-07-30T10:11:42.133Z,23.27
2018-07-30T10:12:41.522Z,23.27
2018-07-30T10:13:41.676Z,23.27
2018-07-30T10:14:41.583Z,23.27
2018-07-30T10:15:41.740Z,23.27
2018-07-30T10:16:41.588Z,23.27
2018-07-30T10:17:42.084Z,23.27
2018-07-30T10:18:41.942Z,23.27
2018-07-30T10:19:41.821Z,23.27
2018-07-30T10:20:41.766Z,23.25
2018-07-30T10:21:41.520Z,23.27
2018-07-30T10:22:41.888Z,23.28
2018-07-30T10:23:42.129Z,23.29
2018-07-30T10:24:42.089Z,23.31
2018-07-30T10:25:41.654Z,23.31
2018-07-30T10:26:41.898Z,23.33
2018-07-30T10:27:41.826Z,23.34
2018-07-30T10:28:41.814Z,23.33
2018-07-30T10:29:42.306Z,23.34
2018-07-30T10:30:42.739Z,23.35
2018-07-30T10:31:41.958Z,23.36
2018-07-30T10:32:42.241Z,23.38
2018-07-30T10:33:42.651Z,23.38
2018-07-30T10:34:42.364Z,23.38
2018-07-30T10:35:41.834Z,23.38
2018-07-30T10:36:41.851Z,23.39
2018-07-30T10:37:41.903Z,23.39
2018-07-30T10:38:42.088Z,23.41
2018-07-30T10:39:42.323Z,23.41
2018-07-30T10:40:42.370Z,23.42
2018-07-30T10:41:41.756Z,23.42
2018-07-30T10:42:41.894Z,23.42
2018-07-30T10:43:41.905Z,23.42
2018-07-30T10:44:41.736Z,23.43
2018-07-30T10:45:41.876Z,23.44
2018-07-30T10:46:42.086Z,23.44
2018-07-30T10:47:41.999Z,23.44
2018-07-30T10:48:41.828Z,23.45
2018-07-30T10:49:41.806Z,23.46
2018-07-30T10:50:41.916Z,23.46
2018-07-30T10:51:41.976Z,23.47
2018-07-30T10:52:41.687Z,23.48
2018-07-30T10:53:41.944Z,23.48
2018-07-30T10:54:41.783Z,23.49
2018-07-30T10:55:41.969Z,23.49
2018-07-30T10:56:41.895Z,23.49
2018-07-30T10:57:41.934Z,23.5
2018-07-30T10:58:41.828Z,23.5
2018-07-30T10:59:41.880Z,23.5
2018-07-30T11:00:41.648Z,23.5
2018-07-30T11:01:41.848Z,23.5
2018-07-30T11:02:41.770Z,23.5
2018-07-30T11:03:41.616Z,23.51
2018-07-30T11:04:41.848Z,23.51
2018-07-30T11:05:41.861Z,23.5
2018-07-30T11:06:41.811Z,23.5
2018-07-30T11:07:42.257Z,23.52
2018-07-30T11:08:41.663Z,23.53
2018-07-30T11:09:42.651Z,23.5
2018-07-30T11:10:41.801Z,23.54
2018-07-30T11:11:41.743Z,23.55
2018-07-30T11:12:41.941Z,23.54
2018-07-30T11:13:41.617Z,23.55
2018-07-30T11:14:42.408Z,23.55
2018-07-30T11:15:41.574Z,23.54
2018-07-30T11:16:41.698Z,23.53
2018-07-30T11:17:41.828Z,23.53
2018-07-30T11:18:41.966Z,23.52
2018-07-30T11:19:41.518Z,23.51
2018-07-30T11:20:41.799Z,23.5
2018-07-30T11:21:42.449Z,23.5
2018-07-30T11:22:41.807Z,23.5
2018-07-30T11:23:41.781Z,23.49
2018-07-30T11:24:41.843Z,23.49
2018-07-30T11:25:41.868Z,23.49
2018-07-30T11:26:41.961Z,23.48
2018-07-30T11:27:41.712Z,23.48
2018-07-30T11:28:41.709Z,23.48
2018-07-30T11:29:41.697Z,23.47
2018-07-30T11:30:41.794Z,23.47
2018-07-30T11:31:41.760Z,23.46
2018-07-30T11:32:41.545Z,23.45
2018-07-30T11:33:42.195Z,23.46
2018-07-30T11:34:41.720Z,23.45
2018-07-30T11:35:41.954Z,23.45
2018-07-30T11:36:41.824Z,23.45
2018-07-30T11:37:41.666Z,23.44
2018-07-30T11:38:41.814Z,23.44
2018-07-30T11:39:41.687Z,23.44
2018-07-30T11:40:41.847Z,23.44
2018-07-30T11:41:41.972Z,23.44
2018-07-30T11:42:41.938Z,23.44
2018-07-30T11:43:42.441Z,23.43
2018-07-30T11:44:41.696Z,23.43
2018-07-30T11:45:41.861Z,23.43
2018-07-30T11:46:41.767Z,23.43
2018-07-30T11:47:41.696Z,23.42
2018-07-30T11:48:42.407Z,23.41
2018-07-30T11:49:41.912Z,23.41
2018-07-30T11:50:41.844Z,23.41
2018-07-30T11:51:41.836Z,23.41
2018-07-30T11:52:41.756Z,23.4
2018-07-30T11:53:42.117Z,23.4
2018-07-30T11:54:41.881Z,23.4
2018-07-30T11:55:41.838Z,23.4
2018-07-30T11:56:41.619Z,23.39
2018-07-30T11:57:41.885Z,23.39
2018-07-30T11:58:41.883Z,23.38
2018-07-30T11:59:41.794Z,23.38
2018-07-30T12:00:41.790Z,23.38
2018-07-30T12:01:42.331Z,23.38
2018-07-30T12:02:41.705Z,23.38
2018-07-30T12:03:41.576Z,23.38
2018-07-30T12:04:41.518Z,23.38
2018-07-30T12:05:41.777Z,23.38
2018-07-30T12:06:41.744Z,23.38
2018-07-30T12:07:41.911Z,23.38
2018-07-30T12:08:42.095Z,23.38
2018-07-30T12:09:41.769Z,23.38
2018-07-30T12:10:41.878Z,23.37
2018-07-30T12:11:41.768Z,23.37
2018-07-30T12:12:41.560Z,23.38
2018-07-30T12:13:41.526Z,23.37
2018-07-30T12:14:41.867Z,23.38
2018-07-30T12:15:41.781Z,23.37
2018-07-30T12:16:41.863Z,23.37
2018-07-30T12:17:41.803Z,23.37
2018-07-30T12:18:41.842Z,23.37
2018-07-30T12:19:41.622Z,23.37
2018-07-30T12:20:41.703Z,23.37
2018-07-30T12:21:42.021Z,23.37
2018-07-30T12:22:41.822Z,23.38
2018-07-30T12:23:41.889Z,23.37
2018-07-30T12:24:41.616Z,23.37
2018-07-30T12:25:41.635Z,23.37
2018-07-30T12:26:41.607Z,23.37
2018-07-30T12:27:41.793Z,23.37
2018-07-30T12:28:41.609Z,23.37
2018-07-30T12:29:41.909Z,23.36
2018-07-30T12:30:42.454Z,23.37
2018-07-30T12:31:41.964Z,23.37
2018-07-30T12:32:41.698Z,23.37
2018-07-30T12:33:41.832Z,23.36
2018-07-30T12:34:41.765Z,23.36
2018-07-30T12:35:41.797Z,23.36
2018-07-30T12:36:41.677Z,23.36
2018-07-30T12:37:41.728Z,23.36
2018-07-30T12:38:41.843Z,23.36
2018-07-30T12:39:41.568Z,23.36
2018-07-30T12:40:41.553Z,23.36
2018-07-30T12:41:41.908Z,23.36
2018-07-30T12:42:41.959Z,23.36
2018-07-30T12:43:41.586Z,23.36
2018-07-30T12:44:41.553Z,23.36
2018-07-30T12:45:41.788Z,23.36
2018-07-30T12:46:41.635Z,23.36
2018-07-30T12:47:41.906Z,23.35
2018-07-30T12:48:41.770Z,23.35
2018-07-30T12:49:41.599Z,23.36
2018-07-30T12:50:41.522Z,23.35
2018-07-30T12:51:41.789Z,23.35
2018-07-30T12:52:41.636Z,23.35
2018-07-30T12:53:41.786Z,23.35
2018-07-30T12:54:41.550Z,23.35